Time;durP1;ratioP1;P1;durP2;ratioP2;P2;SDS_P1;SDS_P2;PMS_P1;PMS_P2;Temp;Humidity;BMP_temperature;BMP_pressure;BME280_temperature;BME280_humidity;BME280_pressure;Samples;Min_cycle;Max_cycle;Signal;HPM_P1;HPM_P2
2021/04/12 00:00:45;;;;;;;3.90;2.70;;;;;;;10.02;44.58;98229.48;1654194;86;21161;-64
2021/04/12 00:03:32;;;;;;;8.13;3.42;;;;;;;10.03;44.34;98231.61;1637289;87;21691;-64
2021/04/12 00:06:05;;;;;;;6.65;2.67;;;;;;;10.01;44.17;98232.55;1657206;86;21332;-64
2021/04/12 00:08:41;;;;;;;5.20;3.02;;;;;;;9.99;44.23;98232.35;1626036;87;21532;-63
2021/04/12 00:16:05;;;;;;;3.87;2.25;;;;;;;9.98;44.17;98212.07;1857238;77;22746;-63
2021/04/12 00:18:53;;;;;;;4.72;3.02;;;;;;;9.96;44.71;98214.47;1801688;78;21129;-64
2021/04/12 00:21:33;;;;;;;3.58;1.75;;;;;;;9.96;43.73;98213.96;1832208;77;21135;-64
2021/04/12 00:24:06;;;;;;;3.90;2.55;;;;;;;9.94;44.38;98213.28;1862777;77;21123;-63
2021/04/12 00:26:46;;;;;;;4.20;2.27;;;;;;;9.93;44.35;98216.83;1862764;77;21274;-62
2021/04/12 00:29:40;;;;;;;4.62;2.55;;;;;;;9.90;44.84;98211.91;1862876;77;21735;-63
2021/04/12 00:32:26;;;;;;;4.28;1.87;;;;;;;9.95;44.26;98207.63;1862526;77;21151;-64
2021/04/12 00:35:11;;;;;;;4.40;2.62;;;;;;;10.01;43.69;98215.69;1817598;77;21154;-63
2021/04/12 00:37:56;;;;;;;6.80;3.22;;;;;;;10.04;44.57;98216.39;1862702;77;21139;-63
2021/04/12 00:40:54;;;;;;;3.42;2.40;;;;;;;10.04;45.10;98215.09;1862496;77;21687;-63
2021/04/12 00:43:28;;;;;;;;;;;;;;;10.04;45.26;98211.20;1824985;77;21131;-64
2021/04/12 00:49:05;;;;;;;5.97;2.72;;;;;;;10.08;45.01;98211.28;1793719;80;21174;-63
2021/04/12 00:52:17;;;;;;;5.25;2.50;;;;;;;10.09;45.02;98211.13;1793726;80;21154;-62
2021/04/12 00:55:06;;;;;;;6.62;3.72;;;;;;;10.08;46.69;98213.88;1777431;80;21177;-63
2021/04/12 00:58:05;;;;;;;7.50;4.90;;;;;;;10.01;46.78;98219.58;1788665;79;21595;-63
2021/04/12 01:00:41;;;;;;;11.30;5.12;;;;;;;9.91;47.10;98221.34;1780771;80;21162;-63
2021/04/12 01:03:31;;;;;;;8.48;4.15;;;;;;;9.91;47.05;98223.11;1765617;80;21154;-62
2021/04/12 01:06:52;;;;;;;11.63;4.87;;;;;;;9.94;47.08;98228.03;1793895;80;21222;-63
2021/04/12 01:09:48;;;;;;;9.70;4.17;;;;;;;9.97;46.12;98231.65;1793126;80;21155;-65
2021/04/12 01:13:00;;;;;;;9.98;3.75;;;;;;;9.97;46.56;98227.76;1793823;80;21552;-64
2021/04/12 01:15:55;;;;;;;10.48;4.92;;;;;;;9.94;46.64;98228.85;1793598;80;21123;-63
2021/04/12 01:19:06;;;;;;;6.65;3.87;;;;;;;9.95;46.52;98218.00;1763078;80;21150;-63
2021/04/12 01:22:14;;;;;;;7.20;3.45;;;;;;;9.94;46.64;98213.77;1777602;80;21634;-63
2021/04/12 01:25:06;;;;;;;8.70;3.52;;;;;;;9.94;46.17;98205.50;1777501;80;21155;-64
2021/04/12 01:28:32;;;;;;;6.97;3.95;;;;;;;9.97;45.83;98204.41;1788373;80;21154;-64
2021/04/12 01:31:20;;;;;;;8.35;3.67;;;;;;;9.98;46.10;98202.98;1715642;82;21179;-64
2021/04/12 01:34:37;;;;;;;4.30;3.22;;;;;;;10.01;45.33;98196.70;1714986;83;21272;-62
2021/04/12 01:37:30;;;;;;;7.05;3.58;;;;;;;10.03;45.86;98203.89;1743194;82;21604;-63
2021/04/12 01:40:28;;;;;;;6.05;3.35;;;;;;;9.95;46.93;98207.16;1738950;82;21174;-62
2021/04/12 01:43:18;;;;;;;6.45;3.87;;;;;;;9.95;46.97;98205.86;1751779;81;21211;-62
2021/04/12 01:46:00;;;;;;;8.88;3.85;;;;;;;9.94;47.09;98200.79;1751374;82;21119;-63
2021/04/12 01:49:03;;;;;;;10.03;3.65;;;;;;;9.96;46.79;98201.50;1751304;82;21182;-64
2021/04/12 01:52:01;;;;;;;5.17;2.75;;;;;;;9.97;46.73;98194.86;1751204;82;21285;-63
2021/04/12 01:54:34;;;;;;;7.92;3.85;;;;;;;9.98;46.66;98199.09;1750730;81;21701;-63
2021/04/12 01:57:43;;;;;;;10.20;3.83;;;;;;;9.97;46.82;98192.27;1751015;82;21293;-63
2021/04/12 02:00:37;;;;;;;6.08;3.52;;;;;;;9.97;46.87;98200.52;1750957;82;21178;-62
2021/04/12 02:03:29;;;;;;;4.97;2.80;;;;;;;9.97;46.34;98197.92;1750949;82;21505;-62
2021/04/12 02:06:38;;;;;;;6.08;3.62;;;;;;;9.92;47.00;98204.01;1751146;82;21277;-63
2021/04/12 02:09:46;;;;;;;4.17;2.42;;;;;;;9.94;46.67;98208.09;1751076;82;21706;-63
2021/04/12 02:13:04;;;;;;;5.85;3.85;;;;;;;9.92;46.74;98198.82;1750959;82;21154;-62
2021/04/12 02:16:10;;;;;;;7.05;3.33;;;;;;;9.89;47.24;98205.08;1751160;82;21155;-63
2021/04/12 02:18:46;;;;;;;7.58;3.30;;;;;;;9.89;47.12;98198.59;1750685;82;21186;-63
2021/04/12 02:21:41;;;;;;;7.45;3.22;;;;;;;9.90;46.80;98201.53;1749088;82;21341;-64
2021/04/12 02:24:34;;;;;;;7.50;3.92;;;;;;;9.89;47.64;98198.59;1737776;82;21203;-64
2021/04/12 02:27:38;;;;;;;8.83;4.08;;;;;;;9.87;47.03;98197.91;1751097;82;21175;-64
2021/04/12 02:33:36;;;;;;;7.30;3.52;;;;;;;9.84;47.65;98207.23;1727519;81;21176;-64
2021/04/12 02:36:31;;;;;;;6.58;4.15;;;;;;;9.85;47.25;98204.17;1744593;81;21143;-64
2021/04/12 02:55:06;;;;;;;12.70;4.25;;;;;;;9.71;48.56;98205.37;1634536;81;21224;-63
2021/04/12 02:58:16;;;;;;;6.70;4.62;;;;;;;9.72;48.43;98203.13;1744175;82;21149;-62
2021/04/12 03:01:29;;;;;;;9.33;3.95;;;;;;;9.74;48.55;98200.38;1744189;81;21638;-61
2021/04/12 03:04:30;;;;;;;12.15;4.60;;;;;;;9.75;48.76;98202.03;1744298;81;21224;-61
2021/04/12 03:07:19;;;;;;;6.28;3.77;;;;;;;9.73;48.50;98199.56;1744100;82;21268;-62
2021/04/12 03:10:11;;;;;;;10.32;4.33;;;;;;;9.73;48.85;98200.85;1744129;82;21224;-63
2021/04/12 03:15:48;;;;;;;6.10;4.20;;;;;;;9.72;50.32;98197.12;1857176;77;23465;-64
2021/04/12 03:18:30;;;;;;;7.22;4.30;;;;;;;9.65;49.33;98199.39;1829319;78;21276;-64
2021/04/12 03:21:29;;;;;;;8.10;5.58;;;;;;;9.64;49.70;98200.37;1862823;76;21129;-64
2021/04/12 03:30:30;;;;;;;10.87;4.43;;;;;;;9.62;49.50;98198.36;1741614;82;21571;-62
2021/04/12 03:36:31;;;;;;;10.80;4.78;;;;;;;9.61;50.04;98195.42;1758967;80;21124;-62
2021/04/12 03:39:16;;;;;;;12.18;4.50;;;;;;;9.59;51.40;98196.04;1728270;83;21175;-64
2021/04/12 03:55:05;;;;;;;6.97;4.25;;;;;;;9.46;52.14;98201.91;1707526;80;21181;-64
2021/04/12 03:58:00;;;;;;;6.20;4.12;;;;;;;9.47;51.68;98200.50;1700152;84;21165;-64
2021/04/12 04:00:53;;;;;;;8.60;4.50;;;;;;;9.46;51.53;98199.31;1699934;84;21633;-63
2021/04/12 04:03:51;;;;;;;7.28;4.22;;;;;;;9.43;52.27;98196.52;1731060;81;21221;-62
2021/04/12 04:06:24;;;;;;;9.45;4.45;;;;;;;9.40;52.22;98195.96;1712524;83;21567;-62
2021/04/12 04:09:18;;;;;;;9.25;4.30;;;;;;;9.39;52.31;98195.61;1741976;82;21170;-62
2021/04/12 04:12:03;;;;;;;7.80;4.78;;;;;;;9.40;51.41;98196.78;1741877;82;21163;-63
2021/04/12 04:15:16;;;;;;;10.68;4.55;;;;;;;9.42;52.23;98202.64;1660170;82;21637;-62
2021/04/12 04:18:23;;;;;;;12.65;5.53;;;;;;;9.46;51.31;98204.50;1739026;81;21205;-64
2021/04/12 04:21:21;;;;;;;9.28;3.77;;;;;;;9.49;51.17;98205.06;1761112;80;21128;-63
2021/04/12 04:24:32;;;;;;;6.67;4.05;;;;;;;9.52;50.96;98203.53;1801718;78;21125;-63
2021/04/12 04:27:52;;;;;;;4.55;3.58;;;;;;;9.56;51.00;98208.45;1801916;78;21272;-64
2021/04/12 04:31:00;;;;;;;8.90;4.17;;;;;;;9.53;50.71;98205.14;1702756;83;21543;-68
2021/04/12 04:34:00;;;;;;;6.75;3.70;;;;;;;9.62;50.79;98214.39;1704862;83;21198;-62
2021/04/12 04:36:56;;;;;;;8.20;3.80;;;;;;;9.67;49.98;98213.53;1710364;84;21607;-63
2021/04/12 04:43:20;;;;;;;6.33;3.60;;;;;;;9.78;49.57;98214.73;1764883;80;21108;-62
2021/04/12 04:46:15;;;;;;;5.97;2.70;;;;;;;9.85;49.25;98212.77;1796991;79;21142;-62
2021/04/12 04:49:11;;;;;;;4.92;2.75;;;;;;;9.92;48.66;98204.80;1784235;80;21512;-62
2021/04/12 04:52:09;;;;;;;7.37;2.90;;;;;;;9.97;48.66;98203.94;1796213;80;21134;-62
2021/04/12 04:58:24;;;;;;;4.62;3.52;;;;;;;10.05;48.26;98200.67;1804659;79;21163;-63
2021/04/12 05:01:00;;;;;;;11.48;3.87;;;;;;;10.11;48.17;98199.33;1734117;81;21175;-62
2021/04/12 05:04:11;;;;;;;11.10;3.33;;;;;;;10.08;48.36;98202.20;1734660;82;21128;-61
2021/04/12 05:10:04;;;;;;;6.30;3.87;;;;;;;10.18;48.48;98212.14;1731678;82;21327;-62
2021/04/12 05:12:53;;;;;;;6.15;3.45;;;;;;;10.12;48.65;98209.56;1812733;79;21112;-62
2021/04/12 05:15:43;;;;;;;10.32;4.65;;;;;;;10.20;48.34;98203.26;1812608;79;21147;-62
2021/04/12 05:18:22;;;;;;;6.78;4.75;;;;;;;10.27;48.95;98199.67;1812751;79;21143;-64
2021/04/12 05:21:21;;;;;;;12.55;4.97;;;;;;;10.32;49.36;98199.59;1812518;79;21131;-64
2021/04/12 05:24:24;;;;;;;14.50;6.40;;;;;;;10.37;49.46;98200.02;1811694;79;21569;-63
2021/04/12 05:30:33;;;;;;;11.18;5.33;;;;;;;10.54;49.15;98191.21;1823487;77;23430;-63
2021/04/12 05:33:37;;;;;;;9.95;5.22;;;;;;;10.53;48.89;98199.47;1775886;78;21162;-64
2021/04/12 05:36:41;;;;;;;9.95;4.33;;;;;;;10.58;48.83;98191.28;1827589;78;21320;-64
2021/04/12 05:40:08;;;;;;;6.05;3.42;;;;;;;10.65;47.50;98198.38;1640805;87;21197;-64
2021/04/12 05:43:08;;;;;;;8.00;4.08;;;;;;;10.76;47.01;98193.52;1660465;85;21227;-64
2021/04/12 05:45:52;;;;;;;9.28;5.20;;;;;;;10.85;46.89;98196.59;1660410;86;21577;-63
2021/04/12 05:48:44;;;;;;;6.50;4.42;;;;;;;10.73;46.81;98193.33;1659453;86;21144;-64
2021/04/12 05:51:57;;;;;;;8.48;4.00;;;;;;;10.80;46.21;98192.28;1659194;86;21255;-63
2021/04/12 05:54:36;;;;;;;6.08;3.40;;;;;;;10.87;46.13;98195.48;1660271;85;21176;-64
2021/04/12 05:57:48;;;;;;;5.72;3.92;;;;;;;10.91;46.04;98190.35;1657223;86;21214;-64
2021/04/12 06:00:28;;;;;;;11.97;4.58;;;;;;;10.98;46.04;98198.88;1627447;87;21648;-64
2021/04/12 06:03:16;;;;;;;10.50;5.28;;;;;;;11.06;45.89;98202.42;1625718;87;21561;-64
2021/04/12 06:06:05;;;;;;;12.10;4.80;;;;;;;11.12;45.71;98201.06;1628176;87;21226;-64
2021/04/12 06:09:05;;;;;;;6.95;4.28;;;;;;;11.21;45.88;98197.59;1627277;88;21189;-64
2021/04/12 06:15:33;;;;;;;5.00;4.35;;;;;;;11.41;44.44;98192.20;1664270;85;21278;-64
2021/04/12 06:18:24;;;;;;;;;;;;;;;11.48;44.31;98192.95;1650528;86;21862;-64
2021/04/12 06:21:28;;;;;;;13.10;4.42;;;;;;;11.59;44.12;98192.77;1663504;85;20157;-64
2021/04/12 06:24:18;;;;;;;7.50;3.67;;;;;;;11.67;43.95;98185.07;1661288;86;21223;-64
2021/04/12 06:27:38;;;;;;;13.05;4.80;;;;;;;11.81;43.67;98190.64;1638155;86;21216;-63
2021/04/12 06:30:34;;;;;;;7.05;4.45;;;;;;;11.84;43.72;98187.74;1635176;86;21267;-64
2021/04/12 06:33:31;;;;;;;7.97;4.75;;;;;;;11.97;43.71;98183.50;1688819;85;21184;-64
2021/04/12 06:36:38;;;;;;;8.00;3.52;;;;;;;12.11;43.39;98184.77;1710421;83;21205;-66
2021/04/12 06:42:43;;;;;;;7.58;3.33;;;;;;;12.32;42.80;98190.06;1649013;87;21245;-64
2021/04/12 06:45:42;;;;;;;7.10;3.95;;;;;;;12.41;42.80;98184.93;1716326;82;21155;-65
2021/04/12 06:48:28;;;;;;;9.30;4.30;;;;;;;12.48;42.83;98182.06;1711725;83;21154;-64
2021/04/12 06:51:51;;;;;;;6.97;4.50;;;;;;;12.57;42.52;98168.12;1704573;84;21626;-64
2021/04/12 06:55:03;;;;;;;12.95;3.27;;;;;;;12.69;42.32;98169.05;1553234;91;21196;-65
2021/04/12 06:58:02;;;;;;;5.22;3.00;;;;;;;12.86;42.41;98162.17;1780093;79;23018;-65
2021/04/12 07:01:00;;;;;;;8.93;4.35;;;;;;;12.93;42.21;98164.50;1750668;82;21163;-64
2021/04/12 07:04:11;;;;;;;10.65;4.37;;;;;;;13.04;42.23;98171.25;1753453;82;21227;-65
2021/04/12 07:07:37;;;;;;;8.03;4.15;;;;;;;13.09;42.27;98172.92;1753652;82;21168;-65
2021/04/12 07:10:36;;;;;;;9.13;3.87;;;;;;;13.17;41.61;98180.83;1657479;85;21184;-64
2021/04/12 07:13:34;;;;;;;10.58;4.00;;;;;;;13.39;41.34;98177.69;1657395;86;21200;-64
2021/04/12 07:16:52;;;;;;;4.35;3.15;;;;;;;13.52;40.76;98167.66;1700645;83;21639;-64
2021/04/12 07:19:46;;;;;;;6.30;4.22;;;;;;;13.64;40.20;98169.02;1700785;84;21186;-64
2021/04/12 07:23:03;;;;;;;5.40;3.85;;;;;;;13.67;39.73;98169.18;1608671;89;21217;-64
2021/04/12 07:26:01;;;;;;;8.55;3.65;;;;;;;13.85;39.82;98171.72;1682475;85;21210;-64
2021/04/12 07:29:01;;;;;;;5.75;4.08;;;;;;;13.94;38.93;98166.34;1682496;85;21153;-64
2021/04/12 07:31:53;;;;;;;6.65;2.75;;;;;;;14.11;39.83;98170.65;1687908;83;21206;-64
2021/04/12 07:35:14;;;;;;;9.13;4.35;;;;;;;14.22;38.11;98165.60;1682087;83;21170;-65
2021/04/12 07:38:06;;;;;;;6.50;3.30;;;;;;;14.34;38.12;98165.63;1556885;92;21714;-65
2021/04/12 07:41:04;;;;;;;9.93;5.30;;;;;;;14.49;37.86;98158.81;1621685;87;21179;-65
2021/04/12 07:43:53;;;;;;;5.05;3.42;;;;;;;14.65;37.69;98157.52;1660103;86;21384;-66
2021/04/12 07:47:02;;;;;;;7.17;3.47;;;;;;;14.81;37.17;98155.87;1650679;87;21190;-64
2021/04/12 07:49:49;;;;;;;7.75;3.80;;;;;;;14.93;37.26;98154.56;1650700;86;21208;-64
2021/04/12 07:52:29;;;;;;;6.37;3.98;;;;;;;15.06;37.44;98141.28;1624202;87;21198;-64
2021/04/12 07:55:48;;;;;;;10.30;4.62;;;;;;;15.16;37.78;98144.55;1659940;86;21301;-65
2021/04/12 07:58:54;;;;;;;8.40;4.45;;;;;;;15.34;38.02;98143.51;1650712;86;21595;-64
2021/04/12 08:01:47;;;;;;;8.25;3.47;;;;;;;15.54;37.53;98128.59;1620168;87;21195;-64
2021/04/12 08:08:24;;;;;;;12.43;5.00;;;;;;;15.87;37.26;98137.62;1708972;83;21166;-64
2021/04/12 08:11:33;;;;;;;5.72;3.37;;;;;;;16.06;36.70;98131.45;1708569;82;21179;-64
2021/04/12 08:14:54;;;;;;;4.58;2.85;;;;;;;16.25;36.38;98131.98;1700333;83;21180;-64
2021/04/12 08:17:57;;;;;;;8.63;3.98;;;;;;;16.36;35.95;98131.08;1739645;81;21593;-65
2021/04/12 08:24:03;;;;;;;5.40;3.05;;;;;;;16.73;34.66;98123.76;1666659;83;21208;-63
2021/04/12 08:26:57;;;;;;;11.80;3.98;;;;;;;16.98;35.23;98117.30;1679600;84;21214;-64
2021/04/12 08:30:22;;;;;;;4.90;3.33;;;;;;;17.14;33.66;98106.33;1681567;84;21176;-65
2021/04/12 08:33:18;;;;;;;4.72;2.90;;;;;;;17.18;33.11;98111.53;1681489;85;21492;-64
2021/04/12 08:39:17;;;;;;;7.67;3.35;;;;;;;17.54;31.85;98108.00;1627685;88;21218;-64
2021/04/12 08:41:54;;;;;;;6.43;3.63;;;;;;;17.74;32.01;98100.89;1627352;86;21193;-64
2021/04/12 08:44:53;;;;;;;7.90;2.75;;;;;;;17.88;31.11;98097.41;1630929;86;21418;-63
2021/04/12 08:47:56;;;;;;;6.45;3.62;;;;;;;17.92;30.51;98090.28;1600389;90;21205;-64
2021/04/12 08:51:14;;;;;;;6.75;3.27;;;;;;;18.12;29.76;98082.61;1631970;87;21157;-64
2021/04/12 08:54:26;;;;;;;6.40;2.87;;;;;;;18.35;29.31;98081.92;1600054;88;21242;-64
2021/04/12 09:00:26;;;;;;;5.35;3.37;;;;;;;18.65;29.08;98067.31;1652072;86;21627;-65
2021/04/12 09:03:37;;;;;;;4.10;2.40;;;;;;;18.76;28.47;98064.15;1640640;87;21189;-65
2021/04/12 09:06:37;;;;;;;4.67;2.40;;;;;;;18.94;26.66;98062.68;1640752;87;21210;-64
2021/04/12 09:09:27;;;;;;;7.33;3.15;;;;;;;19.14;26.44;98058.03;1611729;87;21264;-64
2021/04/12 09:12:33;;;;;;;6.53;2.20;;;;;;;19.31;27.28;98049.60;1614727;86;21215;-65
2021/04/12 09:15:47;;;;;;;10.20;3.40;;;;;;;19.47;25.00;98050.30;1685115;84;21144;-65
2021/04/12 09:18:47;;;;;;;5.78;2.30;;;;;;;19.59;25.53;98050.05;1642520;86;21200;-64
2021/04/12 09:22:05;;;;;;;2.85;2.02;;;;;;;19.81;26.05;98041.80;1684305;84;21608;-65
2021/04/12 09:24:45;;;;;;;3.58;2.15;;;;;;;19.98;24.28;98042.75;1685688;84;21176;-65
2021/04/12 09:27:50;;;;;;;4.10;2.42;;;;;;;20.33;24.58;98042.42;1621669;86;21317;-64
2021/04/12 09:30:58;;;;;;;4.37;1.77;;;;;;;20.45;23.33;98033.91;1645838;86;21237;-64
2021/04/12 09:34:06;;;;;;;2.12;1.60;;;;;;;20.72;22.93;98024.95;1645458;86;21207;-64
2021/04/12 09:37:28;;;;;;;3.25;2.30;;;;;;;20.98;23.26;98032.00;1645526;86;21632;-64
2021/04/12 09:40:21;;;;;;;3.58;2.42;;;;;;;21.45;23.02;98028.22;1685601;84;21246;-63
2021/04/12 09:43:28;;;;;;;5.50;1.90;;;;;;;21.45;21.80;98030.36;1645251;86;21195;-65
2021/04/12 09:46:39;;;;;;;7.72;2.45;;;;;;;22.02;22.03;98024.70;1685636;84;21175;-64
2021/04/12 09:49:25;;;;;;;4.17;2.02;;;;;;;22.16;20.96;98020.94;1685602;84;21219;-69
2021/04/12 09:52:32;;;;;;;6.67;2.20;;;;;;;22.27;22.21;98009.66;1645438;86;21197;-64
2021/04/12 09:55:21;;;;;;;2.95;1.90;;;;;;;22.25;20.90;98016.47;1685400;84;21612;-64
2021/04/12 09:58:18;;;;;;;4.97;1.92;;;;;;;22.47;20.88;98009.49;1645254;86;21233;-65
2021/04/12 10:01:12;;;;;;;4.33;2.00;;;;;;;22.42;20.28;98015.94;1617341;89;21216;-64
2021/04/12 10:04:14;;;;;;;2.58;1.98;;;;;;;22.85;20.08;98010.17;1617537;88;21249;-65
2021/04/12 10:07:16;;;;;;;4.10;2.37;;;;;;;23.40;19.32;98007.52;1617596;87;21190;-65
2021/04/12 10:09:50;;;;;;;5.65;2.60;;;;;;;23.43;19.78;97996.49;1617742;89;21191;-64
2021/04/12 10:12:32;;;;;;;5.37;2.33;;;;;;;23.60;19.49;97988.22;1617735;88;21224;-64
2021/04/12 10:15:15;;;;;;;4.15;2.75;;;;;;;23.43;19.38;97988.54;1618123;88;21191;-64
2021/04/12 10:18:38;;;;;;;3.30;2.08;;;;;;;23.52;19.43;97988.53;1586924;89;21264;-63
2021/04/12 10:21:34;;;;;;;3.70;2.40;;;;;;;23.77;19.85;97989.22;1676468;85;21287;-65
2021/04/12 10:24:27;;;;;;;6.70;2.30;;;;;;;24.03;19.07;97974.23;1676563;84;21171;-64
2021/04/12 10:27:03;;;;;;;10.58;2.87;;;;;;;24.18;18.92;97973.81;1645852;87;21229;-65
2021/04/12 10:29:42;;;;;;;4.28;2.52;;;;;;;24.01;19.02;97969.66;1676697;84;21162;-65
2021/04/12 10:32:25;;;;;;;3.95;2.47;;;;;;;24.13;18.62;97962.53;1676647;84;21587;-66
2021/04/12 10:35:01;;;;;;;2.42;2.22;;;;;;;24.29;18.56;97963.73;1664586;86;21176;-66
2021/04/12 10:38:06;;;;;;;3.20;2.40;;;;;;;23.38;19.35;97950.78;1780547;79;23043;-65
2021/04/12 10:40:45;;;;;;;7.12;3.02;;;;;;;24.30;19.35;97952.59;1753490;80;21156;-65
2021/04/12 10:43:36;;;;;;;3.08;2.33;;;;;;;24.62;17.94;97958.37;1749561;82;21152;-65
2021/04/12 10:46:24;;;;;;;3.60;2.58;;;;;;;25.13;17.58;97942.50;1753440;81;21215;-66
2021/04/12 10:49:15;;;;;;;4.92;2.20;;;;;;;24.99;17.56;97948.58;1750544;82;21596;-66
2021/04/12 10:52:04;;;;;;;4.30;1.92;;;;;;;25.30;17.01;97947.84;1753313;80;21147;-66
2021/04/12 10:54:47;;;;;;;5.12;2.65;;;;;;;25.68;16.83;97949.94;1753236;81;21152;-65
2021/04/12 10:57:41;;;;;;;4.50;2.50;;;;;;;26.17;16.14;97948.34;1751835;82;21152;-66
2021/04/12 11:00:29;;;;;;;3.37;2.30;;;;;;;26.64;15.92;97952.28;1753368;81;21141;-64
2021/04/12 11:03:25;;;;;;;4.35;2.98;;;;;;;25.72;16.23;97947.08;1753359;80;21565;-65
2021/04/12 11:06:09;;;;;;;2.75;2.22;;;;;;;26.07;16.37;97944.20;1753152;82;21261;-66
2021/04/12 11:09:22;;;;;;;3.35;2.35;;;;;;;26.82;16.83;97940.00;1745246;82;21580;-64
2021/04/12 11:11:59;;;;;;;3.87;1.92;;;;;;;26.89;15.95;97931.32;1753159;82;21147;-64
2021/04/12 11:14:32;;;;;;;2.83;2.08;;;;;;;27.19;16.18;97928.23;1753242;82;21152;-65
2021/04/12 11:17:18;;;;;;;2.25;1.65;;;;;;;27.14;16.08;97922.02;1753197;82;21146;-64
2021/04/12 11:20:22;;;;;;;2.52;2.17;;;;;;;26.66;16.14;97926.72;1753148;80;21559;-67
2021/04/12 11:22:58;;;;;;;4.10;2.25;;;;;;;27.08;16.25;97919.03;1753496;80;21243;-63
2021/04/12 11:26:01;;;;;;;4.53;2.30;;;;;;;26.18;16.09;97920.17;1753229;82;21112;-64
2021/04/12 11:28:44;;;;;;;3.85;3.08;;;;;;;25.42;16.49;97914.05;1753277;81;21165;-65
2021/04/12 11:31:50;;;;;;;4.20;2.58;;;;;;;26.21;16.14;97897.60;1742611;82;21216;-64
2021/04/12 11:34:35;;;;;;;3.83;2.10;;;;;;;26.48;16.80;97902.52;1753558;82;21569;-65
2021/04/12 11:37:27;;;;;;;3.33;2.08;;;;;;;26.82;15.81;97897.37;1753696;81;21741;-65
2021/04/12 11:40:03;;;;;;;4.12;2.52;;;;;;;27.00;15.75;97894.16;1754226;80;21205;-64
2021/04/12 11:42:36;;;;;;;3.95;2.27;;;;;;;26.74;15.84;97894.32;1753866;82;21291;-64
2021/04/12 11:45:16;;;;;;;3.50;2.10;;;;;;;27.02;15.58;97887.51;1754169;81;21944;-64
2021/04/12 11:48:22;;;;;;;2.65;2.00;;;;;;;27.50;15.32;97887.23;1753576;82;21128;-65
2021/04/12 11:51:18;;;;;;;3.75;2.05;;;;;;;28.00;14.99;97884.19;1753637;80;21151;-64
2021/04/12 11:53:54;;;;;;;4.78;2.95;;;;;;;27.51;15.12;97870.96;1753674;81;21190;-64
2021/04/12 11:57:03;;;;;;;4.10;3.12;;;;;;;27.61;15.27;97880.94;1753323;82;21188;-65
2021/04/12 12:00:06;;;;;;;5.20;1.92;;;;;;;27.92;15.17;97875.31;1753527;82;21156;-63
2021/04/12 12:03:03;;;;;;;3.47;2.58;;;;;;;28.69;14.44;97860.34;1728858;82;21144;-64
2021/04/12 12:05:40;;;;;;;5.70;2.75;;;;;;;28.22;14.85;97852.33;1754103;82;21168;-64
2021/04/12 12:08:13;;;;;;;5.50;3.50;;;;;;;27.82;15.32;97850.67;1751719;82;21116;-64
2021/04/12 12:11:07;;;;;;;7.97;2.75;;;;;;;28.91;17.20;97845.44;1752723;82;21549;-64
2021/04/12 12:13:54;;;;;;;5.53;2.70;;;;;;;27.99;15.90;97837.20;1726164;82;21538;-63
2021/04/12 12:16:31;;;;;;;3.58;2.27;;;;;;;28.24;15.79;97832.05;1753133;82;21509;-64
2021/04/12 12:19:15;;;;;;;4.05;2.27;;;;;;;27.43;15.68;97850.61;1753535;82;21166;-62
2021/04/12 12:22:17;;;;;;;4.92;2.52;;;;;;;28.91;15.84;97832.64;1753830;81;21290;-63
2021/04/12 12:25:15;;;;;;;3.17;2.40;;;;;;;28.41;15.87;97832.66;1753667;81;21227;-64
2021/04/12 12:28:12;;;;;;;4.83;2.10;;;;;;;27.55;16.37;97834.73;1753535;81;21157;-63
2021/04/12 12:31:10;;;;;;;;;;;;;;;28.12;15.86;97820.24;1756068;82;21589;-63
2021/04/12 12:33:49;;;;;;;3.10;2.27;;;;;;;27.57;16.71;97824.62;1753615;82;20224;-64
2021/04/12 12:36:30;;;;;;;3.70;2.25;;;;;;;27.99;15.82;97823.84;1753382;81;21215;-64
2021/04/12 12:39:26;;;;;;;4.30;2.62;;;;;;;28.35;15.87;97821.69;1753644;81;21159;-64
2021/04/12 12:41:59;;;;;;;7.10;3.60;;;;;;;28.14;15.57;97815.43;1753495;82;21161;-65
2021/04/12 12:44:30;;;;;;;4.83;2.80;;;;;;;26.82;16.17;97820.10;1753459;80;21152;-65
2021/04/12 12:47:11;;;;;;;2.42;2.10;;;;;;;27.94;17.90;97817.94;1753496;81;21156;-63
2021/04/12 12:49:48;;;;;;;5.08;2.90;;;;;;;29.16;14.62;97805.94;1753634;81;21585;-63
2021/04/12 12:52:33;;;;;;;3.30;2.00;;;;;;;29.24;14.44;97800.88;1753384;82;21553;-62
2021/04/12 12:55:07;;;;;;;3.80;2.40;;;;;;;28.99;14.55;97810.17;1753628;82;21218;-63
2021/04/12 12:57:42;;;;;;;5.00;2.30;;;;;;;28.78;15.64;97806.39;1746239;82;21244;-62
2021/04/12 13:00:34;;;;;;;3.92;2.20;;;;;;;27.87;15.56;97800.02;1753570;81;21197;-63
2021/04/12 13:03:35;;;;;;;3.05;2.00;;;;;;;29.10;16.03;97789.11;1819463;79;22559;-63
2021/04/12 13:06:26;;;;;;;7.55;2.25;;;;;;;29.98;14.03;97795.01;1792851;80;21274;-63
2021/04/12 13:08:59;;;;;;;6.37;2.10;;;;;;;29.26;14.25;97790.45;1793125;80;21176;-62
2021/04/12 13:11:42;;;;;;;4.53;2.77;;;;;;;29.49;14.02;97785.94;1792816;80;21220;-64
2021/04/12 13:14:43;;;;;;;2.27;1.50;;;;;;;29.67;13.96;97787.53;1790661;80;21167;-63
2021/04/12 13:17:31;;;;;;;6.42;2.72;;;;;;;31.08;13.11;97782.26;1792774;80;21132;-63
2021/04/12 13:20:10;;;;;;;3.65;2.60;;;;;;;30.00;13.58;97785.38;1792831;80;21321;-64
2021/04/12 13:22:46;;;;;;;5.65;2.27;;;;;;;30.07;13.58;97780.00;1792854;80;21174;-63
2021/04/12 13:25:37;;;;;;;10.08;2.60;;;;;;;30.07;13.58;97780.00;1792612;80;21139;-63
2021/04/12 13:28:41;;;;;;;4.72;2.12;;;;;;;29.75;13.92;97781.36;1792663;80;21167;-64
2021/04/12 13:31:37;;;;;;;3.40;2.55;;;;;;;29.09;14.14;97778.66;1793083;80;21369;-64
2021/04/12 13:34:19;;;;;;;4.72;2.60;;;;;;;29.05;14.50;97775.72;1793057;80;21576;-64
2021/04/12 13:36:56;;;;;;;2.15;1.95;;;;;;;29.05;14.50;97775.72;1792840;80;21687;-64
2021/04/12 13:39:44;;;;;;;2.90;1.90;;;;;;;29.44;14.65;97776.04;1792922;80;21144;-64
2021/04/12 13:42:22;;;;;;;4.30;2.15;;;;;;;30.35;14.68;97770.50;1793025;80;21313;-64
2021/04/12 13:45:01;;;;;;;2.92;1.80;;;;;;;29.97;13.79;97767.95;1792930;80;21187;-64
2021/04/12 13:47:51;;;;;;;5.45;2.17;;;;;;;29.97;14.13;97769.30;1792789;80;21148;-63
2021/04/12 13:50:33;;;;;;;7.03;2.15;;;;;;;29.50;14.47;97764.78;1792194;80;21132;-64
2021/04/12 13:53:15;;;;;;;4.70;2.12;;;;;;;29.26;14.47;97760.47;1792493;80;21171;-64
2021/04/12 13:55:57;;;;;;;2.75;2.15;;;;;;;29.26;14.47;97760.47;1792956;80;21148;-63
2021/04/12 13:58:33;;;;;;;3.65;2.35;;;;;;;29.44;14.20;97759.18;1792089;80;21274;-63
2021/04/12 14:01:16;;;;;;;6.40;2.77;;;;;;;30.14;13.98;97772.47;1789740;80;21314;-64
2021/04/12 14:04:07;;;;;;;4.72;2.45;;;;;;;29.64;14.17;97763.19;1779197;81;21152;-63
2021/04/12 14:07:18;;;;;;;3.72;2.10;;;;;;;28.62;15.02;97754.22;1779374;81;21184;-64
2021/04/12 14:10:13;;;;;;;3.30;2.05;;;;;;;28.60;15.14;97758.20;1779955;81;21168;-63
2021/04/12 14:13:02;;;;;;;4.80;1.95;;;;;;;30.12;14.70;97753.19;1780999;81;21330;-64
2021/04/12 14:15:38;;;;;;;3.60;1.92;;;;;;;29.91;14.32;97751.66;1778740;81;21565;-64
2021/04/12 14:18:08;;;;;;;3.15;2.27;;;;;;;30.92;13.89;97750.42;1778246;80;21156;-63
2021/04/12 14:20:46;;;;;;;3.30;2.05;;;;;;;29.44;14.38;97741.27;1778570;81;21286;-64
2021/04/12 14:23:25;;;;;;;3.25;2.10;;;;;;;30.47;13.70;97731.36;1778538;81;21259;-64
2021/04/12 14:26:10;;;;;;;3.05;1.92;;;;;;;31.38;12.63;97731.58;1778746;81;21160;-64
2021/04/12 14:28:44;;;;;;;2.87;2.10;;;;;;;30.73;13.11;97737.41;1778655;81;21317;-62
2021/04/12 14:31:33;;;;;;;3.72;2.35;;;;;;;30.24;13.69;97730.11;1778676;81;21568;-62
2021/04/12 14:34:13;;;;;;;3.20;2.15;;;;;;;30.83;13.83;97726.61;1778759;81;21530;-62
2021/04/12 14:36:44;;;;;;;3.90;2.50;;;;;;;31.58;12.88;97711.84;1777977;80;21109;-64
2021/04/12 14:39:32;;;;;;;3.33;1.87;;;;;;;31.58;12.88;97711.84;1778648;81;21173;-63
2021/04/12 14:42:05;;;;;;;4.97;2.50;;;;;;;31.29;12.86;97722.52;1778538;80;21151;-65
2021/04/12 14:47:30;;;;;;;3.42;2.42;;;;;;;29.30;14.13;97725.47;1682428;84;21621;-64
2021/04/12 14:50:16;;;;;;;8.18;2.62;;;;;;;29.30;14.13;97725.47;1683166;84;21184;-64
2021/04/12 14:53:12;;;;;;;4.72;2.17;;;;;;;28.15;15.15;97724.94;1683266;85;21176;-64
2021/04/12 14:55:47;;;;;;;3.33;2.12;;;;;;;29.99;13.69;97727.00;1683299;85;21246;-63
2021/04/12 14:58:38;;;;;;;3.15;2.10;;;;;;;30.54;13.24;97720.60;1683593;84;21560;-63
2021/04/12 15:01:29;;;;;;;3.30;1.92;;;;;;;30.52;13.42;97725.45;1683067;85;21662;-64
2021/04/12 15:04:17;;;;;;;3.25;2.00;;;;;;;31.01;13.06;97716.61;1683368;84;21176;-63